Archival Weather

Half Moon Bay

Half Moon Bay, California (KHAF)

Report from: Wednesday, December 6, 2023 12:55 PM PST
Current time: Saturday, February 24, 2024 8:46 AM PST

Current weather – Weather history – Daily summaries
Weather forecast

Present weatherMist
Temperature15.0°C (59.0°F)
Dew point13.0°C (55.4°F)
Winds 13 kts (6.7 m/s, 15 mph) South (190°)
Visibility3 mi. (4.8 km)
Clouds Ceiling: Broken clouds 2,700 ft. (823 m)
Broken clouds 4,400 ft. (1,341 m)
Altimeter30.04 in.Hg (1017 mB)
Relative humidity88 %
Density altitude73 ft. (22 m)
Remarks Fully automated report
Automated weather observing station with precipitation discriminator
Flight conditions Marginal Visual Meteorological Conditions
Raw dataKHAF 062055Z AUTO 19013KT 3SM BR BKN027 BKN044 15/13 A3004 RMK AO2
An error has occurred. This application may no longer respond until reloaded. Reload 🗙